createdAt,value
2023-05-10T00:00:21.364Z,17.60
2023-05-10T00:02:52.891Z,17.50
2023-05-10T00:05:26.856Z,17.40
2023-05-10T00:07:56.098Z,17.30
2023-05-10T00:10:25.030Z,17.20
2023-05-10T00:12:54.473Z,17.10
2023-05-10T00:15:28.549Z,17.00
2023-05-10T00:17:58.263Z,16.90
2023-05-10T00:20:27.357Z,16.90
2023-05-10T00:22:56.604Z,16.80
2023-05-10T00:25:25.718Z,16.80
2023-05-10T00:27:58.089Z,16.70
2023-05-10T00:30:25.320Z,16.70
2023-05-10T00:32:54.683Z,16.70
2023-05-10T00:35:22.784Z,16.60
2023-05-10T00:37:56.395Z,16.60
2023-05-10T00:40:29.523Z,16.60
2023-05-10T00:43:02.405Z,16.60
2023-05-10T00:45:30.942Z,16.60
2023-05-10T00:48:06.381Z,16.60
2023-05-10T00:50:39.697Z,16.60
2023-05-10T00:53:10.095Z,16.50
2023-05-10T00:55:38.088Z,16.50
2023-05-10T00:58:10.611Z,16.50
2023-05-10T01:00:44.885Z,16.50
2023-05-10T01:03:14.041Z,16.40
2023-05-10T01:05:43.413Z,16.50
2023-05-10T01:08:10.237Z,16.40
2023-05-10T01:10:37.199Z,16.40
2023-05-10T01:13:08.673Z,16.40
2023-05-10T01:15:38.847Z,16.40
2023-05-10T01:18:10.301Z,16.40
2023-05-10T01:20:48.163Z,16.30
2023-05-10T01:24:13.826Z,16.30
2023-05-10T01:27:16.784Z,16.30
2023-05-10T01:30:36.104Z,16.30
2023-05-10T01:33:20.615Z,16.30
2023-05-10T01:35:50.397Z,16.20
2023-05-10T01:38:48.388Z,16.20
2023-05-10T01:41:36.891Z,16.20
2023-05-10T01:44:29.934Z,16.10
2023-05-10T01:47:23.367Z,16.20
2023-05-10T01:50:02.333Z,16.10
2023-05-10T01:52:42.108Z,16.10
2023-05-10T01:55:21.712Z,16.00
2023-05-10T01:58:00.906Z,16.00
2023-05-10T02:00:37.549Z,16.00
2023-05-10T02:03:09.750Z,16.00
2023-05-10T02:05:42.941Z,16.00
2023-05-10T02:08:18.480Z,16.00
2023-05-10T02:10:47.920Z,16.00
2023-05-10T02:13:17.673Z,16.00
2023-05-10T02:15:48.279Z,16.00
2023-05-10T02:18:16.883Z,16.00
2023-05-10T02:20:50.018Z,16.00
2023-05-10T02:23:19.752Z,16.00
2023-05-10T02:25:49.049Z,16.00
2023-05-10T02:28:16.773Z,16.00
2023-05-10T02:30:48.431Z,16.00
2023-05-10T02:33:20.995Z,16.00
2023-05-10T02:35:49.486Z,16.10
2023-05-10T02:38:19.883Z,16.10
2023-05-10T02:40:51.269Z,16.10
2023-05-10T02:43:29.146Z,16.00
2023-05-10T02:45:56.931Z,16.00
2023-05-10T02:48:26.365Z,16.00
2023-05-10T02:50:59.363Z,16.00
2023-05-10T02:53:34.064Z,16.00
2023-05-10T02:56:08.740Z,16.00
2023-05-10T02:58:38.133Z,16.00
2023-05-10T03:01:08.689Z,15.90
2023-05-10T03:03:38.810Z,16.00
2023-05-10T03:06:07.964Z,15.90
2023-05-10T03:08:37.472Z,15.90
2023-05-10T03:11:26.625Z,15.90
2023-05-10T03:14:24.857Z,15.90
2023-05-10T03:17:29.132Z,15.90
2023-05-10T03:20:07.345Z,15.90
2023-05-10T03:22:53.128Z,15.90
2023-05-10T03:25:23.739Z,15.90
2023-05-10T03:27:56.228Z,15.90
2023-05-10T03:30:25.664Z,15.90
2023-05-10T03:32:52.650Z,15.90
2023-05-10T03:35:19.585Z,15.90
2023-05-10T03:37:49.833Z,15.90
2023-05-10T03:40:17.121Z,15.90
2023-05-10T03:42:46.568Z,15.90
2023-05-10T03:45:17.829Z,15.80
2023-05-10T03:47:44.831Z,15.90
2023-05-10T03:50:14.261Z,15.90
2023-05-10T03:52:42.060Z,15.90
2023-05-10T03:55:11.526Z,15.90
2023-05-10T03:57:41.029Z,15.80
2023-05-10T04:00:11.197Z,15.90
2023-05-10T04:02:44.023Z,15.80
2023-05-10T04:05:19.685Z,15.90
2023-05-10T04:07:52.001Z,15.80
2023-05-10T04:10:22.139Z,15.90
2023-05-10T04:12:49.121Z,15.90
2023-05-10T04:15:20.808Z,15.80
2023-05-10T04:17:51.302Z,15.80
2023-05-10T04:20:18.542Z,15.90
2023-05-10T04:22:45.436Z,15.90
2023-05-10T04:25:12.561Z,15.90
2023-05-10T04:27:41.733Z,15.90
2023-05-10T04:30:09.209Z,15.90
2023-05-10T04:32:36.087Z,15.90
2023-05-10T04:35:05.655Z,15.90
2023-05-10T04:37:34.598Z,15.90
2023-05-10T04:40:04.844Z,15.90
2023-05-10T04:42:31.643Z,15.90
2023-05-10T04:45:00.649Z,16.00
2023-05-10T04:47:29.858Z,15.90
2023-05-10T04:49:56.678Z,16.00
2023-05-10T04:52:23.562Z,16.00
2023-05-10T04:54:52.943Z,16.00
2023-05-10T04:57:19.751Z,16.00
2023-05-10T04:59:48.025Z,16.00
2023-05-10T05:02:21.265Z,16.00
2023-05-10T05:04:51.036Z,16.00
2023-05-10T05:07:17.932Z,16.10
2023-05-10T05:09:44.880Z,16.10
2023-05-10T05:12:14.891Z,16.10
2023-05-10T05:14:44.331Z,16.10
2023-05-10T05:17:14.044Z,16.20
2023-05-10T05:19:43.507Z,16.20
2023-05-10T05:22:12.646Z,16.20
2023-05-10T05:24:42.448Z,16.20
2023-05-10T05:27:13.796Z,16.20
2023-05-10T05:29:40.622Z,16.20
2023-05-10T05:32:09.348Z,16.20
2023-05-10T05:34:38.614Z,16.20
2023-05-10T05:37:07.643Z,16.20
2023-05-10T05:39:37.501Z,16.30
2023-05-10T05:42:06.635Z,16.20
2023-05-10T05:44:33.435Z,16.20
2023-05-10T05:47:02.698Z,16.20
2023-05-10T05:49:34.197Z,16.30
2023-05-10T05:52:05.426Z,16.20
2023-05-10T05:54:32.843Z,16.20
2023-05-10T05:57:02.138Z,16.30
2023-05-10T05:59:29.152Z,16.30
2023-05-10T06:01:58.382Z,16.30
2023-05-10T06:04:25.353Z,16.30
2023-05-10T06:06:52.309Z,16.30
2023-05-10T06:09:22.283Z,16.30
2023-05-10T06:11:51.466Z,16.30
2023-05-10T06:14:20.896Z,16.30
2023-05-10T06:16:50.266Z,16.40
2023-05-10T06:19:19.549Z,16.40
2023-05-10T06:21:48.977Z,16.40
2023-05-10T06:24:17.871Z,16.40
2023-05-10T06:26:44.729Z,16.50
2023-05-10T06:29:13.996Z,16.50
2023-05-10T06:31:43.074Z,16.50
2023-05-10T06:34:10.166Z,16.60
2023-05-10T06:36:36.932Z,16.50
2023-05-10T06:39:06.609Z,16.50
2023-05-10T06:41:35.769Z,16.60
2023-05-10T06:44:07.219Z,16.60
2023-05-10T06:46:36.453Z,16.60
2023-05-10T06:49:08.750Z,16.70
2023-05-10T06:51:37.626Z,16.70
2023-05-10T06:54:04.475Z,16.70
2023-05-10T06:56:36.200Z,16.80
2023-05-10T06:59:03.803Z,16.80
2023-05-10T07:01:30.694Z,16.80
2023-05-10T07:03:57.559Z,16.90
2023-05-10T07:06:33.415Z,16.90
2023-05-10T07:09:06.288Z,16.90
2023-05-10T07:11:35.480Z,17.00
2023-05-10T07:14:04.468Z,17.00
2023-05-10T07:16:34.530Z,17.10
2023-05-10T07:19:03.590Z,17.10
2023-05-10T07:21:33.198Z,17.20
2023-05-10T07:24:01.188Z,17.20
2023-05-10T07:26:30.548Z,17.20
2023-05-10T07:28:57.481Z,17.20
2023-05-10T07:31:26.845Z,17.20
2023-05-10T07:33:55.910Z,17.20
2023-05-10T07:36:22.714Z,17.20
2023-05-10T07:38:50.426Z,17.20
2023-05-10T07:41:19.480Z,17.30
2023-05-10T07:43:48.428Z,17.20
2023-05-10T07:46:17.494Z,17.30
2023-05-10T07:48:44.425Z,17.30
2023-05-10T07:51:15.613Z,17.30
2023-05-10T07:53:47.122Z,17.30
2023-05-10T07:56:30.332Z,17.30
2023-05-10T07:58:57.739Z,17.30
2023-05-10T08:01:27.346Z,17.30
2023-05-10T08:03:56.875Z,17.30
2023-05-10T08:06:29.430Z,17.30
2023-05-10T08:09:00.918Z,17.30
2023-05-10T08:11:31.255Z,17.40
2023-05-10T08:13:58.453Z,17.40
2023-05-10T08:16:27.639Z,17.50
2023-05-10T08:19:01.573Z,17.50
2023-05-10T08:21:32.223Z,17.60
2023-05-10T08:23:59.147Z,17.60
2023-05-10T08:26:26.883Z,17.70
2023-05-10T08:28:55.799Z,17.70
2023-05-10T08:31:27.110Z,17.80
2023-05-10T08:33:58.597Z,17.90
2023-05-10T08:36:25.545Z,17.90
2023-05-10T08:38:53.096Z,18.00
2023-05-10T08:41:26.661Z,18.10
2023-05-10T08:43:56.058Z,18.20
2023-05-10T08:46:24.241Z,18.20
2023-05-10T08:48:55.752Z,18.30
2023-05-10T08:51:29.207Z,18.30
2023-05-10T08:54:01.551Z,18.40
2023-05-10T08:56:28.670Z,18.40
2023-05-10T08:58:58.095Z,18.50
2023-05-10T09:01:27.826Z,18.50
2023-05-10T09:04:03.877Z,18.50
2023-05-10T09:06:33.471Z,18.50
2023-05-10T09:09:01.332Z,18.50
2023-05-10T09:11:30.020Z,18.50
2023-05-10T09:14:04.382Z,18.50
2023-05-10T09:16:31.330Z,18.40
2023-05-10T09:18:58.302Z,18.30
2023-05-10T09:21:31.647Z,18.30
2023-05-10T09:24:10.385Z,18.20
2023-05-10T09:26:51.097Z,18.20
2023-05-10T09:29:18.378Z,18.20
2023-05-10T09:31:55.742Z,18.20
2023-05-10T09:34:36.372Z,18.20
2023-05-10T09:37:05.385Z,18.20
2023-05-10T09:39:39.649Z,18.20
2023-05-10T09:42:13.301Z,18.30
2023-05-10T09:44:44.293Z,18.30
2023-05-10T09:47:19.921Z,18.20
2023-05-10T09:49:56.167Z,18.30
2023-05-10T09:52:51.577Z,18.30
2023-05-10T09:55:21.582Z,18.30
2023-05-10T09:58:03.430Z,18.40
2023-05-10T10:00:41.135Z,18.40
2023-05-10T10:03:17.188Z,18.50
2023-05-10T10:05:45.758Z,18.60
2023-05-10T10:08:15.722Z,18.60
2023-05-10T10:10:45.644Z,18.70
2023-05-10T10:13:12.746Z,18.80
2023-05-10T10:15:40.097Z,18.90
2023-05-10T10:18:07.839Z,19.00
2023-05-10T10:20:38.693Z,19.00
2023-05-10T10:23:09.592Z,19.10
2023-05-10T10:25:36.915Z,19.10
2023-05-10T10:28:35.117Z,19.10
2023-05-10T10:31:36.126Z,19.10
2023-05-10T10:34:09.620Z,19.10
2023-05-10T10:36:48.052Z,19.10
2023-05-10T10:39:16.161Z,19.10
2023-05-10T10:41:57.803Z,19.10
2023-05-10T10:44:25.963Z,19.10
2023-05-10T10:47:30.515Z,19.10
2023-05-10T10:50:08.978Z,19.10
2023-05-10T10:52:44.619Z,19.10
2023-05-10T10:55:15.951Z,19.00
2023-05-10T10:58:01.312Z,19.10
2023-05-10T11:00:37.226Z,19.00
2023-05-10T11:03:08.400Z,18.90
2023-05-10T11:05:47.460Z,18.90
2023-05-10T11:08:28.220Z,18.80
2023-05-10T11:11:01.222Z,18.70
2023-05-10T11:13:49.971Z,18.70
2023-05-10T11:16:21.683Z,18.60
2023-05-10T11:19:19.112Z,18.60
2023-05-10T11:22:17.831Z,18.50
2023-05-10T11:24:59.475Z,18.60
2023-05-10T11:27:26.630Z,18.60
2023-05-10T11:29:55.881Z,18.60
2023-05-10T11:32:25.486Z,18.60
2023-05-10T11:34:54.546Z,18.60
2023-05-10T11:37:23.552Z,18.70
2023-05-10T11:39:55.786Z,18.80
2023-05-10T11:42:22.710Z,18.80
2023-05-10T11:44:52.673Z,18.90
2023-05-10T11:47:24.790Z,19.00
2023-05-10T11:49:53.136Z,19.10
2023-05-10T11:52:20.872Z,19.10
2023-05-10T11:54:54.498Z,19.20
2023-05-10T11:57:29.468Z,19.20
2023-05-10T11:59:58.775Z,19.30
2023-05-10T12:02:30.684Z,19.30
2023-05-10T12:05:01.440Z,19.30
2023-05-10T12:07:28.510Z,19.30
2023-05-10T12:10:13.236Z,19.30
2023-05-10T12:12:45.601Z,19.30
2023-05-10T12:15:24.636Z,19.40
2023-05-10T12:17:57.249Z,19.40
2023-05-10T12:20:28.900Z,19.40
2023-05-10T12:23:00.709Z,19.40
2023-05-10T12:25:35.786Z,19.50
2023-05-10T12:28:07.523Z,19.40
2023-05-10T12:30:37.665Z,19.50
2023-05-10T12:33:14.144Z,19.50
2023-05-10T12:35:54.494Z,19.60
2023-05-10T12:38:44.128Z,19.80
2023-05-10T12:41:16.431Z,19.80
2023-05-10T12:43:43.484Z,20.00
2023-05-10T12:46:15.266Z,20.20
2023-05-10T12:48:47.098Z,20.30
2023-05-10T12:51:22.902Z,20.60
2023-05-10T12:53:56.797Z,20.90
2023-05-10T12:56:25.852Z,21.10
2023-05-10T12:58:55.278Z,21.30
2023-05-10T13:01:27.125Z,21.50
2023-05-10T13:03:57.090Z,21.60
2023-05-10T13:06:26.307Z,21.70
2023-05-10T13:08:55.710Z,21.90
2023-05-10T13:11:22.731Z,22.00
2023-05-10T13:13:51.635Z,22.00
2023-05-10T13:16:18.530Z,22.10
2023-05-10T13:18:47.896Z,22.10
2023-05-10T13:21:19.409Z,22.10
2023-05-10T13:23:47.402Z,22.00
2023-05-10T13:26:16.249Z,22.00
2023-05-10T13:28:46.829Z,22.00
2023-05-10T13:31:13.629Z,21.90
2023-05-10T13:33:40.579Z,22.00
2023-05-10T13:36:08.041Z,22.10
2023-05-10T13:38:37.026Z,22.20
2023-05-10T13:41:08.952Z,22.30
2023-05-10T13:43:38.197Z,22.30
2023-05-10T13:46:05.121Z,22.30
2023-05-10T13:48:32.267Z,22.20
2023-05-10T13:51:01.568Z,22.20
2023-05-10T13:53:28.498Z,22.10
2023-05-10T13:55:59.855Z,22.00
2023-05-10T13:58:31.382Z,22.00
2023-05-10T14:00:58.215Z,21.90
2023-05-10T14:03:25.337Z,21.80
2023-05-10T14:05:52.263Z,21.70
2023-05-10T14:08:24.071Z,21.70
2023-05-10T14:10:51.657Z,21.70
2023-05-10T14:13:20.938Z,21.70
2023-05-10T14:15:49.921Z,21.70
2023-05-10T14:18:16.883Z,21.70
2023-05-10T14:20:46.351Z,21.90
2023-05-10T14:23:15.477Z,21.90
2023-05-10T14:25:42.425Z,22.00
2023-05-10T14:28:14.340Z,22.20
2023-05-10T14:30:46.148Z,22.30
2023-05-10T14:33:13.392Z,22.40
2023-05-10T14:35:46.039Z,22.50
2023-05-10T14:38:13.455Z,22.60
2023-05-10T14:40:43.581Z,22.60
2023-05-10T14:43:10.502Z,22.70
2023-05-10T14:45:42.347Z,22.80
2023-05-10T14:48:16.418Z,22.80
2023-05-10T14:50:43.299Z,22.80
2023-05-10T14:53:10.783Z,22.80
2023-05-10T14:55:40.308Z,22.80
2023-05-10T14:58:09.482Z,22.80
2023-05-10T15:00:36.398Z,23.00
2023-05-10T15:03:04.428Z,23.00
2023-05-10T15:05:38.399Z,23.00
2023-05-10T15:08:06.623Z,23.10
2023-05-10T15:10:38.128Z,23.10
2023-05-10T15:13:09.613Z,23.30
2023-05-10T15:15:41.164Z,23.40
2023-05-10T15:18:10.938Z,23.50
2023-05-10T15:20:38.015Z,23.50
2023-05-10T15:23:09.104Z,23.50
2023-05-10T15:25:37.977Z,23.50
2023-05-10T15:28:05.807Z,23.50
2023-05-10T15:30:34.798Z,23.60
2023-05-10T15:33:01.749Z,23.60
2023-05-10T15:35:30.966Z,23.70
2023-05-10T15:38:00.170Z,23.70
2023-05-10T15:40:29.412Z,23.70
2023-05-10T15:42:56.230Z,23.80
2023-05-10T15:45:23.502Z,23.70
2023-05-10T15:47:50.405Z,23.70
2023-05-10T15:50:17.656Z,23.60
2023-05-10T15:52:47.489Z,23.40
2023-05-10T15:55:17.619Z,23.30
2023-05-10T15:57:48.661Z,23.10
2023-05-10T16:00:18.475Z,23.00
2023-05-10T16:02:45.334Z,22.90
2023-05-10T16:05:12.263Z,22.70
2023-05-10T16:07:41.534Z,22.60
2023-05-10T16:10:13.894Z,22.50
2023-05-10T16:12:40.881Z,22.30
2023-05-10T16:15:08.824Z,22.20
2023-05-10T16:17:40.161Z,22.20
2023-05-10T16:20:08.028Z,22.10
2023-05-10T16:22:36.262Z,22.00
2023-05-10T16:25:03.226Z,21.90
2023-05-10T16:27:33.447Z,21.80
2023-05-10T16:30:03.144Z,21.80
2023-05-10T16:32:37.133Z,21.80
2023-05-10T16:35:09.577Z,21.60
2023-05-10T16:37:36.429Z,21.60
2023-05-10T16:40:08.963Z,21.50
2023-05-10T16:42:38.433Z,21.50
2023-05-10T16:45:11.712Z,21.40
2023-05-10T16:47:40.585Z,21.40
2023-05-10T16:50:10.218Z,21.40
2023-05-10T16:52:37.556Z,21.40
2023-05-10T16:55:09.333Z,21.40
2023-05-10T16:57:38.279Z,21.40
2023-05-10T17:00:08.529Z,21.40
2023-05-10T17:02:37.994Z,21.40
2023-05-10T17:05:07.957Z,21.30
2023-05-10T17:07:36.963Z,21.30
2023-05-10T17:10:07.041Z,21.20
2023-05-10T17:12:36.284Z,21.10
2023-05-10T17:15:06.479Z,21.10
2023-05-10T17:17:37.961Z,21.00
2023-05-10T17:20:10.496Z,21.00
2023-05-10T17:22:42.010Z,20.90
2023-05-10T17:25:11.302Z,20.90
2023-05-10T17:27:40.334Z,20.80
2023-05-10T17:30:13.456Z,20.80
2023-05-10T17:32:40.462Z,20.70
2023-05-10T17:35:08.153Z,20.70
2023-05-10T17:37:37.402Z,20.60
2023-05-10T17:40:07.868Z,20.60
2023-05-10T17:42:37.058Z,20.60
2023-05-10T17:45:09.504Z,20.50
2023-05-10T17:47:38.770Z,20.50
2023-05-10T17:50:06.951Z,20.50
2023-05-10T17:52:36.368Z,20.50
2023-05-10T17:55:06.230Z,20.40
2023-05-10T17:57:38.045Z,20.50
2023-05-10T18:00:09.063Z,20.40
2023-05-10T18:02:36.887Z,20.40
2023-05-10T18:05:05.093Z,20.40
2023-05-10T18:07:36.493Z,20.40
2023-05-10T18:10:03.418Z,20.40
2023-05-10T18:12:30.291Z,20.40
2023-05-10T18:14:57.585Z,20.30
2023-05-10T18:17:26.956Z,20.30
2023-05-10T18:19:53.923Z,20.30
2023-05-10T18:22:23.221Z,20.20
2023-05-10T18:24:54.488Z,20.20
2023-05-10T18:27:24.343Z,20.10
2023-05-10T18:29:53.756Z,20.20
2023-05-10T18:32:23.363Z,20.10
2023-05-10T18:34:50.367Z,20.10
2023-05-10T18:37:22.284Z,20.00
2023-05-10T18:39:51.355Z,20.10
2023-05-10T18:42:22.375Z,20.00
2023-05-10T18:44:51.455Z,19.90
2023-05-10T18:47:20.673Z,19.90
2023-05-10T18:49:49.917Z,19.90
2023-05-10T18:52:21.631Z,19.80
2023-05-10T18:54:50.226Z,19.70
2023-05-10T18:57:21.047Z,19.80
2023-05-10T18:59:48.814Z,19.70
2023-05-10T19:02:15.910Z,19.70
2023-05-10T19:04:45.353Z,19.60
2023-05-10T19:07:14.793Z,19.60
2023-05-10T19:09:43.862Z,19.60
2023-05-10T19:12:10.712Z,19.50
2023-05-10T19:14:39.705Z,19.50
2023-05-10T19:17:08.570Z,19.50
2023-05-10T19:19:38.669Z,19.40
2023-05-10T19:22:05.744Z,19.40
2023-05-10T19:24:37.265Z,19.30
2023-05-10T19:27:04.284Z,19.20
2023-05-10T19:29:31.149Z,19.20
2023-05-10T19:31:58.135Z,19.10
2023-05-10T19:34:25.117Z,19.10
2023-05-10T19:36:56.622Z,19.00
2023-05-10T19:39:27.042Z,18.90
2023-05-10T19:41:54.010Z,18.90
2023-05-10T19:44:25.271Z,18.80
2023-05-10T19:46:52.250Z,18.70
2023-05-10T19:49:28.994Z,18.70
2023-05-10T19:51:58.219Z,18.60
2023-05-10T19:54:24.999Z,18.50
2023-05-10T19:56:56.500Z,18.50
2023-05-10T19:59:25.943Z,18.40
2023-05-10T20:01:57.340Z,18.40
2023-05-10T20:04:28.974Z,18.30
2023-05-10T20:07:00.845Z,18.30
2023-05-10T20:09:29.772Z,18.20
2023-05-10T20:11:56.558Z,18.20
2023-05-10T20:14:25.505Z,18.20
2023-05-10T20:16:52.317Z,18.10
2023-05-10T20:19:19.245Z,18.10
2023-05-10T20:21:48.390Z,18.00
2023-05-10T20:24:15.290Z,18.00
2023-05-10T20:26:44.487Z,17.90
2023-05-10T20:29:13.580Z,17.90
2023-05-10T20:31:45.329Z,17.80
2023-05-10T20:34:14.780Z,17.80
2023-05-10T20:36:46.445Z,17.80
2023-05-10T20:39:15.636Z,17.70
2023-05-10T20:41:42.565Z,17.70
2023-05-10T20:44:11.809Z,17.60
2023-05-10T20:46:38.772Z,17.60
2023-05-10T20:49:09.130Z,17.60
2023-05-10T20:51:40.156Z,17.60
2023-05-10T20:54:06.968Z,17.60
2023-05-10T20:56:34.860Z,17.50
2023-05-10T20:59:04.043Z,17.50
2023-05-10T21:01:33.273Z,17.50
2023-05-10T21:04:02.122Z,17.50
2023-05-10T21:06:33.440Z,17.50
2023-05-10T21:09:00.281Z,17.40
2023-05-10T21:11:27.157Z,17.50
2023-05-10T21:14:01.778Z,17.50
2023-05-10T21:16:33.932Z,17.40
2023-05-10T21:19:07.172Z,17.40
2023-05-10T21:21:34.498Z,17.40
2023-05-10T21:24:01.368Z,17.40
2023-05-10T21:26:31.305Z,17.30
2023-05-10T21:28:59.216Z,17.30
2023-05-10T21:31:28.577Z,17.30
2023-05-10T21:33:58.488Z,17.20
2023-05-10T21:36:29.959Z,17.20
2023-05-10T21:38:59.179Z,17.20
2023-05-10T21:41:26.490Z,17.10
2023-05-10T21:43:56.460Z,17.10
2023-05-10T21:46:25.758Z,17.10
2023-05-10T21:48:57.319Z,17.00
2023-05-10T21:51:29.241Z,17.00
2023-05-10T21:53:56.269Z,17.00
2023-05-10T21:56:23.304Z,16.90
2023-05-10T21:58:50.278Z,16.90
2023-05-10T22:01:17.989Z,16.90
2023-05-10T22:03:46.126Z,16.90
2023-05-10T22:06:15.243Z,16.90
2023-05-10T22:08:42.048Z,16.90
2023-05-10T22:11:11.016Z,16.80
2023-05-10T22:13:37.829Z,16.80
2023-05-10T22:16:07.370Z,16.80
2023-05-10T22:18:36.985Z,16.70
2023-05-10T22:21:06.328Z,16.70
2023-05-10T22:23:37.613Z,16.60
2023-05-10T22:26:07.186Z,16.60
2023-05-10T22:28:36.180Z,16.60
2023-05-10T22:31:03.257Z,16.50
2023-05-10T22:33:30.239Z,16.50
2023-05-10T22:35:57.129Z,16.50
2023-05-10T22:38:26.068Z,16.40
2023-05-10T22:40:57.636Z,16.40
2023-05-10T22:43:26.856Z,16.40
2023-05-10T22:45:54.190Z,16.40
2023-05-10T22:48:23.153Z,16.40
2023-05-10T22:50:54.118Z,16.40
2023-05-10T22:53:20.998Z,16.30
2023-05-10T22:55:51.367Z,16.30
2023-05-10T22:58:20.570Z,16.20
2023-05-10T23:00:47.365Z,16.20
2023-05-10T23:03:14.657Z,16.30
2023-05-10T23:05:41.598Z,16.20
2023-05-10T23:08:08.485Z,16.20
2023-05-10T23:10:38.425Z,16.20
2023-05-10T23:13:05.930Z,16.20
2023-05-10T23:15:40.188Z,16.20
2023-05-10T23:18:09.907Z,16.20
2023-05-10T23:20:41.794Z,16.10
2023-05-10T23:23:09.338Z,16.10
2023-05-10T23:25:46.001Z,16.10
2023-05-10T23:28:12.993Z,16.10
2023-05-10T23:30:39.893Z,16.10
2023-05-10T23:33:08.263Z,16.00
2023-05-10T23:35:35.136Z,16.00
2023-05-10T23:38:02.007Z,16.00
2023-05-10T23:40:28.880Z,16.00
2023-05-10T23:42:58.340Z,16.00
2023-05-10T23:45:25.129Z,15.90
2023-05-10T23:47:54.233Z,16.00
2023-05-10T23:50:21.395Z,15.90
2023-05-10T23:52:50.804Z,15.90
2023-05-10T23:55:17.760Z,15.90
2023-05-10T23:57:44.602Z,15.90
